createdAt,value
2022-08-30T00:01:56.392Z,100.00
2022-08-30T00:04:22.869Z,100.00
2022-08-30T00:06:49.362Z,100.00
2022-08-30T00:09:15.806Z,100.00
2022-08-30T00:11:42.307Z,100.00
2022-08-30T00:14:08.935Z,100.00
2022-08-30T00:16:35.405Z,100.00
2022-08-30T00:19:02.377Z,100.00
2022-08-30T00:21:28.850Z,100.00
2022-08-30T00:23:55.365Z,100.00
2022-08-30T00:26:22.175Z,100.00
2022-08-30T00:28:48.607Z,100.00
2022-08-30T00:31:15.433Z,100.00
2022-08-30T00:33:42.146Z,100.00
2022-08-30T00:36:08.654Z,100.00
2022-08-30T00:38:35.072Z,100.00
2022-08-30T00:41:01.594Z,100.00
2022-08-30T00:43:30.283Z,100.00
2022-08-30T00:45:57.699Z,100.00
2022-08-30T00:48:24.177Z,100.00
2022-08-30T00:50:54.801Z,100.00
2022-08-30T00:53:23.819Z,100.00
2022-08-30T00:55:50.612Z,100.00
2022-08-30T00:58:21.342Z,100.00
2022-08-30T01:00:49.046Z,100.00
2022-08-30T01:03:15.648Z,100.00
2022-08-30T01:05:42.246Z,100.00
2022-08-30T01:08:08.685Z,100.00
2022-08-30T01:10:35.875Z,100.00
2022-08-30T01:13:02.747Z,100.00
2022-08-30T01:15:29.213Z,100.00
2022-08-30T01:17:56.423Z,100.00
2022-08-30T01:20:25.039Z,100.00
2022-08-30T01:22:51.452Z,100.00
2022-08-30T01:25:21.647Z,100.00
2022-08-30T01:27:50.835Z,100.00
2022-08-30T01:30:17.472Z,100.00
2022-08-30T01:32:45.366Z,100.00
2022-08-30T01:35:12.995Z,100.00
2022-08-30T01:37:39.522Z,100.00
2022-08-30T01:40:06.696Z,100.00
2022-08-30T01:42:33.216Z,100.00
2022-08-30T01:44:59.627Z,100.00
2022-08-30T01:47:26.131Z,100.00
2022-08-30T01:49:52.649Z,100.00
2022-08-30T01:52:19.247Z,100.00
2022-08-30T01:54:46.102Z,100.00
2022-08-30T01:57:13.855Z,100.00
2022-08-30T01:59:42.514Z,100.00
2022-08-30T02:02:09.175Z,100.00
2022-08-30T02:04:36.296Z,100.00
2022-08-30T02:07:03.737Z,100.00
2022-08-30T02:09:30.199Z,100.00
2022-08-30T02:11:56.781Z,100.00
2022-08-30T02:14:23.545Z,100.00
2022-08-30T02:16:50.053Z,100.00
2022-08-30T02:19:18.024Z,100.00
2022-08-30T02:21:44.754Z,100.00
2022-08-30T02:24:11.191Z,100.00
2022-08-30T02:26:37.679Z,100.00
2022-08-30T02:29:05.338Z,100.00
2022-08-30T02:31:32.022Z,100.00
2022-08-30T02:33:58.455Z,100.00
2022-08-30T02:36:25.193Z,100.00
2022-08-30T02:38:51.725Z,100.00
2022-08-30T02:41:18.611Z,100.00
2022-08-30T02:43:45.042Z,100.00
2022-08-30T02:46:11.662Z,100.00
2022-08-30T02:48:38.142Z,100.00
2022-08-30T02:51:10.553Z,100.00
2022-08-30T02:53:37.997Z,100.00
2022-08-30T02:56:04.463Z,100.00
2022-08-30T02:58:31.165Z,100.00
2022-08-30T03:00:57.697Z,100.00
2022-08-30T03:03:24.653Z,100.00
2022-08-30T03:05:51.154Z,100.00
2022-08-30T03:08:17.614Z,100.00
2022-08-30T03:10:44.027Z,100.00
2022-08-30T03:13:10.458Z,100.00
2022-08-30T03:15:37.655Z,100.00
2022-08-30T03:18:04.151Z,100.00
2022-08-30T03:20:30.618Z,100.00
2022-08-30T03:22:57.122Z,100.00
2022-08-30T03:25:23.583Z,100.00
2022-08-30T03:27:50.719Z,100.00
2022-08-30T03:30:17.828Z,100.00
2022-08-30T03:32:44.274Z,100.00
2022-08-30T03:35:11.313Z,100.00
2022-08-30T03:37:37.804Z,100.00
2022-08-30T03:40:05.207Z,100.00
2022-08-30T03:42:33.126Z,100.00
2022-08-30T03:45:02.252Z,100.00
2022-08-30T03:47:29.070Z,100.00
2022-08-30T03:49:55.891Z,100.00
2022-08-30T03:52:22.325Z,100.00
2022-08-30T03:54:48.749Z,100.00
2022-08-30T03:57:20.284Z,100.00
2022-08-30T03:59:50.836Z,100.00
2022-08-30T04:02:17.357Z,100.00
2022-08-30T04:04:43.820Z,100.00
2022-08-30T04:07:10.269Z,100.00
2022-08-30T04:09:36.693Z,100.00
2022-08-30T04:12:03.303Z,100.00
2022-08-30T04:14:29.765Z,100.00
2022-08-30T04:16:56.208Z,100.00
2022-08-30T04:19:22.631Z,100.00
2022-08-30T04:21:49.069Z,100.00
2022-08-30T04:24:15.632Z,100.00
2022-08-30T04:26:42.100Z,100.00
2022-08-30T04:29:08.736Z,100.00
2022-08-30T04:31:35.259Z,100.00
2022-08-30T04:34:01.735Z,100.00
2022-08-30T04:36:28.204Z,100.00
2022-08-30T04:38:54.640Z,100.00
2022-08-30T04:41:22.671Z,100.00
2022-08-30T04:43:52.118Z,100.00
2022-08-30T04:46:19.092Z,100.00
2022-08-30T04:48:46.309Z,100.00
2022-08-30T04:51:14.161Z,100.00
2022-08-30T04:53:41.133Z,100.00
2022-08-30T04:56:11.509Z,100.00
2022-08-30T04:58:37.990Z,100.00
2022-08-30T05:01:04.757Z,100.00
2022-08-30T05:03:31.237Z,100.00
2022-08-30T05:05:57.750Z,100.00
2022-08-30T05:08:24.927Z,100.00
2022-08-30T05:10:51.844Z,100.00
2022-08-30T05:13:18.928Z,100.00
2022-08-30T05:15:45.452Z,100.00
2022-08-30T05:18:14.049Z,100.00
2022-08-30T05:20:41.147Z,100.00
2022-08-30T05:23:07.624Z,100.00
2022-08-30T05:25:34.870Z,100.00
2022-08-30T05:28:01.346Z,100.00
2022-08-30T05:30:28.399Z,100.00
2022-08-30T05:32:54.969Z,100.00
2022-08-30T05:35:25.580Z,100.00
2022-08-30T05:37:52.452Z,100.00
2022-08-30T05:40:18.988Z,100.00
2022-08-30T05:42:46.230Z,100.00
2022-08-30T05:45:13.198Z,100.00
2022-08-30T05:47:39.872Z,100.00
2022-08-30T05:50:09.805Z,100.00
2022-08-30T05:52:36.776Z,100.00
2022-08-30T05:55:04.356Z,100.00
2022-08-30T05:57:37.397Z,100.00
2022-08-30T06:00:07.601Z,100.00
2022-08-30T06:02:34.088Z,100.00
2022-08-30T06:05:01.993Z,100.00
2022-08-30T06:07:28.592Z,100.00
2022-08-30T06:09:55.031Z,100.00
2022-08-30T06:12:21.647Z,100.00
2022-08-30T06:14:48.125Z,100.00
2022-08-30T06:17:15.559Z,100.00
2022-08-30T06:19:42.047Z,100.00
2022-08-30T06:22:08.545Z,100.00
2022-08-30T06:24:56.540Z,100.00
2022-08-30T06:27:22.708Z,100.00
2022-08-30T06:29:51.334Z,100.00
2022-08-30T06:32:17.841Z,100.00
2022-08-30T06:34:44.291Z,100.00
2022-08-30T06:37:10.736Z,100.00
2022-08-30T06:39:37.165Z,100.00
2022-08-30T06:42:03.654Z,100.00
2022-08-30T06:44:30.162Z,100.00
2022-08-30T06:46:56.686Z,100.00
2022-08-30T06:49:23.208Z,100.00
2022-08-30T06:51:49.673Z,100.00
2022-08-30T06:54:18.062Z,100.00
2022-08-30T06:56:57.702Z,100.00
2022-08-30T06:59:25.503Z,100.00
2022-08-30T07:01:53.573Z,100.00
2022-08-30T07:04:20.043Z,100.00
2022-08-30T07:06:46.501Z,100.00
2022-08-30T07:09:12.937Z,100.00
2022-08-30T07:11:41.013Z,100.00
2022-08-30T07:14:07.707Z,100.00
2022-08-30T07:16:34.260Z,100.00
2022-08-30T07:19:01.874Z,100.00
2022-08-30T07:21:36.257Z,100.00
2022-08-30T07:24:02.749Z,100.00
2022-08-30T07:26:31.027Z,100.00
2022-08-30T07:28:57.752Z,100.00
2022-08-30T07:31:24.486Z,100.00
2022-08-30T07:33:51.083Z,100.00
2022-08-30T07:36:18.030Z,100.00
2022-08-30T07:38:45.337Z,100.00
2022-08-30T07:41:16.447Z,100.00
2022-08-30T07:43:42.932Z,100.00
2022-08-30T07:46:09.989Z,100.00
2022-08-30T07:48:36.833Z,100.00
2022-08-30T07:51:05.513Z,100.00
2022-08-30T07:53:32.204Z,100.00
2022-08-30T07:55:59.185Z,100.00
2022-08-30T07:58:25.642Z,100.00
2022-08-30T08:00:52.101Z,100.00
2022-08-30T08:03:19.321Z,100.00
2022-08-30T08:05:46.124Z,100.00
2022-08-30T08:08:13.887Z,100.00
2022-08-30T08:10:40.829Z,100.00
2022-08-30T08:13:07.329Z,100.00
2022-08-30T08:15:33.848Z,100.00
2022-08-30T08:18:01.201Z,100.00
2022-08-30T08:20:27.962Z,100.00
2022-08-30T08:22:54.665Z,100.00
2022-08-30T08:25:21.137Z,100.00
2022-08-30T08:27:48.943Z,100.00
2022-08-30T08:30:15.572Z,100.00
2022-08-30T08:32:42.053Z,100.00
2022-08-30T08:35:08.608Z,100.00
2022-08-30T08:37:35.033Z,100.00
2022-08-30T08:40:01.615Z,80.20
2022-08-30T08:42:48.368Z,70.26
2022-08-30T08:45:16.689Z,68.93
2022-08-30T08:48:13.023Z,64.07
2022-08-30T08:51:02.081Z,65.07
2022-08-30T08:53:51.457Z,65.05
2022-08-30T08:56:18.675Z,64.39
2022-08-30T08:58:46.237Z,62.42
2022-08-30T09:01:13.430Z,60.56
2022-08-30T09:03:39.933Z,55.13
2022-08-30T09:06:20.398Z,54.95
2022-08-30T09:08:46.823Z,55.48
2022-08-30T09:11:16.747Z,56.93
2022-08-30T09:13:43.216Z,58.12
2022-08-30T09:16:09.773Z,59.17
2022-08-30T09:18:45.451Z,57.25
2022-08-30T09:21:12.531Z,52.95
2022-08-30T09:23:46.975Z,50.58
2022-08-30T09:26:13.821Z,50.71
2022-08-30T09:28:44.925Z,48.46
2022-08-30T09:31:18.729Z,47.12
2022-08-30T09:33:55.221Z,47.16
2022-08-30T09:36:42.073Z,45.59
2022-08-30T09:39:17.754Z,45.39
2022-08-30T09:41:45.129Z,44.87
2022-08-30T09:44:16.508Z,46.51
2022-08-30T09:46:53.541Z,44.94
2022-08-30T09:49:30.480Z,43.83
2022-08-30T09:52:15.221Z,42.04
2022-08-30T09:54:47.752Z,41.91
2022-08-30T09:57:34.499Z,39.25
2022-08-30T10:00:21.530Z,38.89
2022-08-30T10:03:14.370Z,38.25
2022-08-30T10:05:45.716Z,38.54
2022-08-30T10:08:20.522Z,39.75
2022-08-30T10:10:52.239Z,38.89
2022-08-30T10:13:28.728Z,36.32
2022-08-30T10:15:59.922Z,35.29
2022-08-30T10:18:30.846Z,32.22
2022-08-30T10:20:57.300Z,31.19
2022-08-30T10:23:34.268Z,29.12
2022-08-30T10:26:03.817Z,32.61
2022-08-30T10:28:30.213Z,32.82
2022-08-30T10:30:57.770Z,32.91
2022-08-30T10:33:31.790Z,32.18
2022-08-30T10:35:58.736Z,32.30
2022-08-30T10:38:33.001Z,31.18
2022-08-30T10:41:20.316Z,29.38
2022-08-30T10:43:53.553Z,27.70
2022-08-30T10:46:24.485Z,28.45
2022-08-30T10:48:50.891Z,29.60
2022-08-30T10:51:21.642Z,27.98
2022-08-30T10:54:21.891Z,29.04
2022-08-30T10:56:49.549Z,26.62
2022-08-30T10:59:19.218Z,26.25
2022-08-30T11:01:54.795Z,24.90
2022-08-30T11:04:21.198Z,23.46
2022-08-30T11:07:00.386Z,22.71
2022-08-30T11:09:29.873Z,21.37
2022-08-30T11:11:56.289Z,21.90
2022-08-30T11:14:25.379Z,23.43
2022-08-30T11:16:52.674Z,25.26
2022-08-30T11:19:32.156Z,26.14
2022-08-30T11:22:22.172Z,27.62
2022-08-30T11:24:59.586Z,27.73
2022-08-30T11:27:41.391Z,29.43
2022-08-30T11:30:27.006Z,28.23
2022-08-30T11:32:57.339Z,26.64
2022-08-30T11:38:29.919Z,25.45
2022-08-30T11:40:56.334Z,26.26
2022-08-30T11:43:40.060Z,27.58
2022-08-30T11:46:15.801Z,28.27
2022-08-30T11:48:53.564Z,29.58
2022-08-30T11:51:40.985Z,31.32
2022-08-30T11:54:22.123Z,32.96
2022-08-30T11:56:54.584Z,32.10
2022-08-30T11:59:35.712Z,30.67
2022-08-30T12:02:02.293Z,27.16
2022-08-30T12:04:44.119Z,25.43
2022-08-30T12:07:10.999Z,27.07
2022-08-30T12:09:37.781Z,27.50
2022-08-30T12:12:08.298Z,28.93
2022-08-30T12:14:49.014Z,30.62
2022-08-30T12:17:42.960Z,27.30
2022-08-30T12:20:29.529Z,25.87
2022-08-30T12:22:56.669Z,24.87
2022-08-30T12:25:33.724Z,25.62
2022-08-30T12:28:15.633Z,27.73
2022-08-30T12:30:42.469Z,31.90
2022-08-30T12:33:14.251Z,34.80
2022-08-30T12:35:41.883Z,36.30
2022-08-30T12:38:13.138Z,38.85
2022-08-30T12:40:41.318Z,40.08
2022-08-30T12:43:17.397Z,41.43
2022-08-30T12:45:45.041Z,42.21
2022-08-30T12:48:17.593Z,42.49
2022-08-30T12:50:51.629Z,41.17
2022-08-30T12:53:28.745Z,36.25
2022-08-30T12:55:59.345Z,33.17
2022-08-30T12:58:34.390Z,34.07
2022-08-30T13:01:19.465Z,35.08
2022-08-30T13:04:13.652Z,35.79
2022-08-30T13:06:43.807Z,36.36
2022-08-30T13:09:22.302Z,38.41
2022-08-30T13:11:49.040Z,39.46
2022-08-30T13:14:20.252Z,40.43
2022-08-30T13:16:47.299Z,41.00
2022-08-30T13:19:32.007Z,41.65
2022-08-30T13:21:58.840Z,39.81
2022-08-30T13:24:25.819Z,39.68
2022-08-30T13:26:53.321Z,40.14
2022-08-30T13:29:21.535Z,40.77
2022-08-30T13:31:49.544Z,40.16
2022-08-30T13:34:18.991Z,41.12
2022-08-30T13:36:50.390Z,42.20
2022-08-30T13:39:17.139Z,42.83
2022-08-30T13:41:48.201Z,44.56
2022-08-30T13:44:15.876Z,45.19
2022-08-30T13:46:43.470Z,44.99
2022-08-30T13:52:19.432Z,44.91
2022-08-30T13:54:46.405Z,44.64
2022-08-30T13:57:16.574Z,45.24
2022-08-30T13:59:43.068Z,44.72
2022-08-30T14:02:16.394Z,43.32
2022-08-30T14:04:42.958Z,43.85
2022-08-30T14:07:14.105Z,44.14
2022-08-30T14:09:46.565Z,44.98
2022-08-30T14:12:13.009Z,46.41
2022-08-30T14:14:42.974Z,45.98
2022-08-30T14:17:10.763Z,44.92
2022-08-30T14:19:39.043Z,44.92
2022-08-30T14:22:05.491Z,45.78
2022-08-30T14:24:32.405Z,44.79
2022-08-30T14:27:00.036Z,45.02
2022-08-30T14:29:29.761Z,45.54
2022-08-30T14:31:56.606Z,45.15
2022-08-30T14:34:25.103Z,46.42
2022-08-30T14:36:51.556Z,47.16
2022-08-30T14:39:21.289Z,46.70
2022-08-30T14:41:48.677Z,47.63
2022-08-30T14:44:15.778Z,48.42
2022-08-30T14:46:42.660Z,48.86
2022-08-30T14:49:11.131Z,48.13
2022-08-30T14:51:37.868Z,48.14
2022-08-30T14:54:04.780Z,47.66
2022-08-30T14:56:31.415Z,48.58
2022-08-30T14:59:00.635Z,48.14
2022-08-30T15:01:27.782Z,49.39
2022-08-30T15:03:54.559Z,49.91
2022-08-30T15:06:22.143Z,50.15
2022-08-30T15:08:48.657Z,49.54
2022-08-30T15:11:16.886Z,49.33
2022-08-30T15:13:46.314Z,49.15
2022-08-30T15:16:23.407Z,49.58
2022-08-30T15:18:50.368Z,49.40
2022-08-30T15:21:46.245Z,50.58
2022-08-30T15:24:13.833Z,51.34
2022-08-30T15:26:44.086Z,50.61
2022-08-30T15:29:11.327Z,50.51
2022-08-30T15:31:38.609Z,49.09
2022-08-30T15:34:05.130Z,48.58
2022-08-30T15:36:33.129Z,48.76
2022-08-30T15:39:00.627Z,48.75
2022-08-30T15:41:27.672Z,48.17
2022-08-30T15:43:56.332Z,50.13
2022-08-30T15:46:29.445Z,51.24
2022-08-30T15:48:58.406Z,51.17
2022-08-30T15:51:25.060Z,51.02
2022-08-30T15:53:52.087Z,50.98
2022-08-30T15:56:18.978Z,51.67
2022-08-30T15:58:45.664Z,52.21
2022-08-30T16:01:15.175Z,52.71
2022-08-30T16:03:41.737Z,52.82
2022-08-30T16:06:15.136Z,52.38
2022-08-30T16:08:43.076Z,52.63
2022-08-30T16:11:13.582Z,53.50
2022-08-30T16:13:42.195Z,53.40
2022-08-30T16:16:09.007Z,53.43
2022-08-30T16:18:36.160Z,53.71
2022-08-30T16:21:04.151Z,54.44
2022-08-30T16:23:30.615Z,54.79
2022-08-30T16:26:04.270Z,55.07
2022-08-30T16:28:31.114Z,55.38
2022-08-30T16:30:58.238Z,55.53
2022-08-30T16:33:24.769Z,55.89
2022-08-30T16:35:52.002Z,55.79
2022-08-30T16:38:18.608Z,56.06
2022-08-30T16:40:45.152Z,56.92
2022-08-30T16:43:12.608Z,56.01
2022-08-30T16:45:40.058Z,56.66
2022-08-30T16:48:06.775Z,56.71
2022-08-30T16:50:37.570Z,57.01
2022-08-30T16:53:04.586Z,57.12
2022-08-30T16:55:37.585Z,57.92
2022-08-30T16:58:04.736Z,57.72
2022-08-30T17:00:32.290Z,58.29
2022-08-30T17:02:58.982Z,57.47
2022-08-30T17:05:25.539Z,58.19
2022-08-30T17:07:51.975Z,58.16
2022-08-30T17:10:23.101Z,58.08
2022-08-30T17:12:50.002Z,58.32
2022-08-30T17:15:16.695Z,57.49
2022-08-30T17:17:43.407Z,58.21
2022-08-30T17:20:10.096Z,58.44
2022-08-30T17:22:36.587Z,59.15
2022-08-30T17:25:03.086Z,59.20
2022-08-30T17:27:29.523Z,59.77
2022-08-30T17:29:56.009Z,60.94
2022-08-30T17:32:22.689Z,60.79
2022-08-30T17:34:51.115Z,61.04
2022-08-30T17:37:20.336Z,61.46
2022-08-30T17:39:49.892Z,62.27
2022-08-30T17:42:16.386Z,62.80
2022-08-30T17:44:43.074Z,63.73
2022-08-30T17:47:10.298Z,64.63
2022-08-30T17:49:36.769Z,65.69
2022-08-30T17:52:03.968Z,66.83
2022-08-30T17:54:31.820Z,67.91
2022-08-30T17:56:58.436Z,68.66
2022-08-30T17:59:25.813Z,69.43
2022-08-30T18:01:52.497Z,69.68
2022-08-30T18:04:19.597Z,70.76
2022-08-30T18:06:46.488Z,71.44
2022-08-30T18:09:13.217Z,72.49
2022-08-30T18:11:39.810Z,72.72
2022-08-30T18:14:06.609Z,73.58
2022-08-30T18:16:38.236Z,74.89
2022-08-30T18:19:09.593Z,77.02
2022-08-30T18:21:36.588Z,78.33
2022-08-30T18:24:03.262Z,78.29
2022-08-30T18:26:30.599Z,79.56
2022-08-30T18:28:57.038Z,81.33
2022-08-30T18:31:23.459Z,82.13
2022-08-30T18:33:49.952Z,83.37
2022-08-30T18:36:16.417Z,84.89
2022-08-30T18:38:44.491Z,85.66
2022-08-30T18:41:13.795Z,87.82
2022-08-30T18:43:40.402Z,89.69
2022-08-30T18:46:09.351Z,90.81
2022-08-30T18:48:36.295Z,91.12
2022-08-30T18:51:02.757Z,91.04
2022-08-30T18:53:29.505Z,91.90
2022-08-30T18:55:56.253Z,91.87
2022-08-30T18:58:22.682Z,95.20
2022-08-30T19:00:49.320Z,95.80
2022-08-30T19:03:18.323Z,98.40
2022-08-30T19:05:45.463Z,97.97
2022-08-30T19:08:11.999Z,98.72
2022-08-30T19:10:38.978Z,96.30
2022-08-30T19:13:06.123Z,95.34
2022-08-30T19:15:34.269Z,95.63
2022-08-30T19:18:01.739Z,95.26
2022-08-30T19:20:28.250Z,95.35
2022-08-30T19:23:23.052Z,95.86
2022-08-30T19:25:41.939Z,97.14
2022-08-30T19:28:08.695Z,96.63
2022-08-30T19:30:35.522Z,96.60
2022-08-30T19:33:02.125Z,97.25
2022-08-30T19:35:30.166Z,98.83
2022-08-30T19:37:56.879Z,99.06
2022-08-30T19:40:23.388Z,99.49
2022-08-30T19:42:52.013Z,100.00
2022-08-30T19:45:21.486Z,100.00
2022-08-30T19:47:48.837Z,100.00
2022-08-30T19:50:15.871Z,100.00
2022-08-30T19:52:42.362Z,100.00
2022-08-30T19:55:09.189Z,100.00
2022-08-30T19:57:35.827Z,100.00
2022-08-30T20:00:02.413Z,100.00
2022-08-30T20:02:28.921Z,100.00
2022-08-30T20:04:55.599Z,100.00
2022-08-30T20:07:26.202Z,100.00
2022-08-30T20:09:54.118Z,100.00
2022-08-30T20:12:20.557Z,100.00
2022-08-30T20:14:47.163Z,100.00
2022-08-30T20:17:14.490Z,100.00
2022-08-30T20:19:41.727Z,100.00
2022-08-30T20:22:08.449Z,100.00
2022-08-30T20:27:03.700Z,100.00
2022-08-30T20:29:30.292Z,100.00
2022-08-30T20:31:57.058Z,100.00
2022-08-30T20:34:27.478Z,100.00
2022-08-30T20:36:54.834Z,100.00
2022-08-30T20:39:21.862Z,100.00
2022-08-30T20:41:48.964Z,100.00
2022-08-30T20:44:16.377Z,100.00
2022-08-30T20:46:43.806Z,100.00
2022-08-30T20:49:10.438Z,100.00
2022-08-30T20:51:36.974Z,100.00
2022-08-30T20:54:06.207Z,100.00
2022-08-30T20:56:34.327Z,100.00
2022-08-30T20:59:02.575Z,100.00
2022-08-30T21:01:30.630Z,100.00
2022-08-30T21:03:57.140Z,100.00
2022-08-30T21:06:23.806Z,100.00
2022-08-30T21:08:50.238Z,100.00
2022-08-30T21:11:16.695Z,100.00
2022-08-30T21:13:43.350Z,100.00
2022-08-30T21:16:09.790Z,100.00
2022-08-30T21:18:38.939Z,100.00
2022-08-30T21:21:13.092Z,100.00
2022-08-30T21:23:39.601Z,100.00
2022-08-30T21:26:06.693Z,100.00
2022-08-30T21:28:33.370Z,100.00
2022-08-30T21:31:10.408Z,100.00
2022-08-30T21:33:37.034Z,100.00
2022-08-30T21:36:22.793Z,100.00
2022-08-30T21:38:49.205Z,100.00
2022-08-30T21:41:15.649Z,100.00
2022-08-30T21:43:42.100Z,100.00
2022-08-30T21:46:09.528Z,100.00
2022-08-30T21:48:37.371Z,100.00
2022-08-30T21:51:07.911Z,100.00
2022-08-30T21:53:34.556Z,100.00
2022-08-30T21:56:07.868Z,100.00
2022-08-30T21:58:39.616Z,100.00
2022-08-30T22:01:25.833Z,100.00
2022-08-30T22:03:53.374Z,100.00
2022-08-30T22:06:19.855Z,100.00
2022-08-30T22:08:47.138Z,100.00
2022-08-30T22:11:17.994Z,100.00
2022-08-30T22:13:45.267Z,100.00
2022-08-30T22:16:14.888Z,100.00
2022-08-30T22:18:41.379Z,100.00
2022-08-30T22:21:08.322Z,100.00
2022-08-30T22:23:34.851Z,100.00
2022-08-30T22:26:01.814Z,100.00
2022-08-30T22:28:28.293Z,100.00
2022-08-30T22:30:54.732Z,100.00
2022-08-30T22:33:21.173Z,100.00
2022-08-30T22:35:47.615Z,100.00
2022-08-30T22:38:14.628Z,100.00
2022-08-30T22:40:45.468Z,100.00
2022-08-30T22:43:12.422Z,100.00
2022-08-30T22:45:38.947Z,100.00
2022-08-30T22:48:05.521Z,100.00
2022-08-30T22:50:31.942Z,100.00
2022-08-30T22:52:58.674Z,100.00
2022-08-30T22:55:25.086Z,100.00
2022-08-30T22:57:51.974Z,100.00
2022-08-30T23:00:20.317Z,100.00
2022-08-30T23:02:48.176Z,100.00
2022-08-30T23:05:15.535Z,100.00
2022-08-30T23:07:42.186Z,100.00
2022-08-30T23:10:09.164Z,100.00
2022-08-30T23:12:38.792Z,100.00
2022-08-30T23:15:06.658Z,100.00
2022-08-30T23:17:39.621Z,100.00
2022-08-30T23:20:06.579Z,100.00
2022-08-30T23:22:33.034Z,100.00
2022-08-30T23:25:18.094Z,100.00
2022-08-30T23:28:03.741Z,100.00
2022-08-30T23:30:49.074Z,100.00
2022-08-30T23:33:34.421Z,100.00
2022-08-30T23:36:25.282Z,100.00
2022-08-30T23:39:10.476Z,100.00
2022-08-30T23:41:55.739Z,100.00
2022-08-30T23:44:40.874Z,100.00
2022-08-30T23:47:25.975Z,100.00
2022-08-30T23:50:11.082Z,100.00
2022-08-30T23:52:56.237Z,100.00
2022-08-30T23:55:41.570Z,100.00
2022-08-30T23:58:26.631Z,100.00
